createdAt,value
2019-03-18T00:00:24.677Z,4.30
2019-03-18T00:02:53.329Z,4.37
2019-03-18T00:05:22.060Z,4.39
2019-03-18T00:07:50.617Z,4.44
2019-03-18T00:10:19.197Z,4.41
2019-03-18T00:12:47.769Z,4.37
2019-03-18T00:15:16.392Z,4.33
2019-03-18T00:17:45.090Z,4.39
2019-03-18T00:20:13.667Z,4.52
2019-03-18T00:22:42.208Z,4.67
2019-03-18T00:25:15.695Z,4.62
2019-03-18T00:27:44.968Z,4.43
2019-03-18T00:30:17.727Z,4.24
2019-03-18T00:32:46.346Z,4.08
2019-03-18T00:35:15.073Z,4.17
2019-03-18T00:37:43.649Z,4.29
2019-03-18T00:40:16.461Z,4.39
2019-03-18T00:42:44.962Z,4.38
2019-03-18T00:45:15.024Z,4.41
2019-03-18T00:47:44.190Z,4.47
2019-03-18T00:50:16.665Z,4.48
2019-03-18T00:52:45.257Z,4.56
2019-03-18T00:55:14.150Z,4.68
2019-03-18T00:57:42.743Z,4.80
2019-03-18T01:00:15.892Z,4.77
2019-03-18T01:02:44.587Z,4.56
2019-03-18T01:05:13.207Z,4.39
2019-03-18T01:07:41.776Z,4.28
2019-03-18T01:10:12.176Z,4.24
2019-03-18T01:12:40.786Z,4.23
2019-03-18T01:15:10.691Z,4.19
2019-03-18T01:17:39.279Z,4.19
2019-03-18T01:20:15.077Z,4.18
2019-03-18T01:22:43.663Z,4.18
2019-03-18T01:25:12.364Z,4.24
2019-03-18T01:27:41.620Z,4.30
2019-03-18T01:30:14.228Z,4.41
2019-03-18T01:32:42.812Z,4.59
2019-03-18T01:35:11.832Z,4.65
2019-03-18T01:37:40.398Z,4.53
2019-03-18T01:40:16.086Z,4.34
2019-03-18T01:42:44.579Z,4.16
2019-03-18T01:45:13.156Z,4.09
2019-03-18T01:47:41.550Z,4.07
2019-03-18T01:50:14.006Z,4.22
2019-03-18T01:52:42.520Z,4.23
2019-03-18T01:55:11.123Z,4.29
2019-03-18T01:57:39.721Z,4.40
2019-03-18T02:00:11.200Z,4.35
2019-03-18T02:02:39.766Z,4.29
2019-03-18T02:05:09.821Z,4.29
2019-03-18T02:07:38.409Z,4.39
2019-03-18T02:10:16.730Z,4.54
2019-03-18T02:12:45.359Z,4.56
2019-03-18T02:15:14.622Z,4.40
2019-03-18T02:17:43.459Z,4.29
2019-03-18T02:20:14.412Z,4.28
2019-03-18T02:22:43.066Z,4.24
2019-03-18T02:25:12.056Z,4.33
2019-03-18T02:27:40.707Z,4.37
2019-03-18T02:30:14.502Z,4.48
2019-03-18T02:32:43.153Z,4.57
2019-03-18T02:35:11.927Z,4.62
2019-03-18T02:37:40.542Z,4.80
2019-03-18T02:40:12.676Z,4.86
2019-03-18T02:42:41.340Z,4.90
2019-03-18T02:45:12.826Z,5.30
2019-03-18T02:47:41.388Z,5.27
2019-03-18T02:50:10.584Z,4.97
2019-03-18T02:52:39.214Z,4.76
2019-03-18T02:55:08.757Z,4.66
2019-03-18T02:57:37.435Z,4.59
2019-03-18T03:00:11.363Z,4.40
2019-03-18T03:02:39.988Z,4.40
2019-03-18T03:05:10.765Z,4.32
2019-03-18T03:07:40.392Z,4.33
2019-03-18T03:10:10.930Z,4.29
2019-03-18T03:12:40.470Z,4.49
2019-03-18T03:15:11.207Z,4.65
2019-03-18T03:17:39.816Z,4.74
2019-03-18T03:20:10.467Z,4.97
2019-03-18T03:22:39.041Z,5.09
2019-03-18T03:25:09.410Z,5.01
2019-03-18T03:27:38.210Z,4.82
2019-03-18T03:30:09.736Z,4.70
2019-03-18T03:32:38.320Z,4.61
2019-03-18T03:35:07.509Z,4.63
2019-03-18T03:37:36.087Z,4.64
2019-03-18T03:40:06.493Z,4.78
2019-03-18T03:42:35.094Z,4.82
2019-03-18T03:45:04.435Z,4.97
2019-03-18T03:47:33.089Z,5.04
2019-03-18T03:50:01.718Z,5.14
2019-03-18T03:52:30.271Z,5.19
2019-03-18T03:54:58.715Z,5.22
2019-03-18T03:57:27.477Z,5.56
2019-03-18T03:59:57.102Z,5.53
2019-03-18T04:02:25.600Z,5.37
2019-03-18T04:04:54.183Z,5.15
2019-03-18T04:07:22.792Z,5.00
2019-03-18T04:09:51.456Z,4.88
2019-03-18T04:12:20.177Z,4.92
2019-03-18T04:14:48.689Z,4.86
2019-03-18T04:17:17.316Z,4.84
2019-03-18T04:19:45.827Z,4.88
2019-03-18T04:22:14.331Z,4.95
2019-03-18T04:24:42.903Z,5.04
2019-03-18T04:27:11.381Z,5.06
2019-03-18T04:29:39.937Z,5.24
2019-03-18T04:32:08.513Z,5.34
2019-03-18T04:34:37.122Z,5.39
2019-03-18T04:37:05.700Z,5.14
2019-03-18T04:39:34.341Z,4.96
2019-03-18T04:42:02.923Z,4.73
2019-03-18T04:44:31.510Z,4.65
2019-03-18T04:46:59.947Z,4.55
2019-03-18T04:49:28.480Z,4.55
2019-03-18T04:51:57.261Z,4.64
2019-03-18T04:54:25.843Z,4.79
2019-03-18T04:56:54.338Z,4.83
2019-03-18T04:59:22.978Z,4.86
2019-03-18T05:01:52.671Z,4.86
2019-03-18T05:04:21.213Z,4.91
2019-03-18T05:06:49.904Z,4.95
2019-03-18T05:09:18.995Z,5.06
2019-03-18T05:11:47.505Z,4.95
2019-03-18T05:14:16.070Z,4.76
2019-03-18T05:16:44.606Z,4.54
2019-03-18T05:19:13.739Z,4.50
2019-03-18T05:21:42.382Z,4.53
2019-03-18T05:24:11.005Z,4.70
2019-03-18T05:26:39.536Z,4.80
2019-03-18T05:29:08.106Z,4.74
2019-03-18T05:31:36.681Z,4.70
2019-03-18T05:34:05.304Z,4.62
2019-03-18T05:36:34.030Z,4.61
2019-03-18T05:39:02.545Z,4.69
2019-03-18T05:41:31.112Z,4.78
2019-03-18T05:43:59.701Z,4.92
2019-03-18T05:46:28.245Z,5.13
2019-03-18T05:48:56.889Z,4.95
2019-03-18T05:51:25.604Z,4.78
2019-03-18T05:53:54.141Z,4.61
2019-03-18T05:56:22.692Z,4.60
2019-03-18T05:58:51.309Z,4.72
2019-03-18T06:01:19.748Z,4.69
2019-03-18T06:03:48.296Z,4.75
2019-03-18T06:06:16.880Z,4.65
2019-03-18T06:08:45.478Z,4.65
2019-03-18T06:11:14.036Z,4.68
2019-03-18T06:13:42.651Z,4.66
2019-03-18T06:16:11.249Z,4.81
2019-03-18T06:18:39.871Z,4.96
2019-03-18T06:21:08.651Z,5.27
2019-03-18T06:23:37.241Z,5.55
2019-03-18T06:26:05.718Z,5.43
2019-03-18T06:28:34.335Z,5.20
2019-03-18T06:31:02.890Z,5.00
2019-03-18T06:33:31.367Z,4.88
2019-03-18T06:35:59.804Z,4.92
2019-03-18T06:38:28.551Z,4.98
2019-03-18T06:40:57.067Z,4.93
2019-03-18T06:43:25.557Z,4.91
2019-03-18T06:45:54.196Z,5.05
2019-03-18T06:48:22.720Z,5.18
2019-03-18T06:50:51.168Z,5.33
2019-03-18T06:53:19.649Z,5.60
2019-03-18T06:55:48.570Z,5.90
2019-03-18T06:58:17.114Z,6.30
2019-03-18T07:00:45.699Z,6.17
2019-03-18T07:03:14.308Z,5.90
2019-03-18T07:05:42.943Z,5.78
2019-03-18T07:08:11.516Z,5.66
2019-03-18T07:10:40.155Z,5.75
2019-03-18T07:13:08.710Z,6.05
2019-03-18T07:15:37.343Z,6.18
2019-03-18T07:18:17.560Z,6.41
2019-03-18T07:20:36.255Z,6.65
2019-03-18T07:23:04.871Z,6.63
2019-03-18T07:25:33.508Z,6.94
2019-03-18T07:28:02.041Z,7.21
2019-03-18T07:30:30.717Z,7.60
2019-03-18T07:32:59.458Z,8.01
2019-03-18T07:35:28.055Z,8.23
2019-03-18T07:37:56.673Z,7.99
2019-03-18T07:40:25.506Z,7.97
2019-03-18T07:42:54.042Z,7.90
2019-03-18T07:45:22.635Z,8.15
2019-03-18T07:47:51.278Z,8.46
2019-03-18T07:50:19.876Z,8.67
2019-03-18T07:52:48.646Z,8.77
2019-03-18T07:55:17.101Z,9.02
2019-03-18T07:57:45.826Z,8.95
2019-03-18T08:00:15.318Z,8.83
2019-03-18T08:02:43.901Z,8.60
2019-03-18T08:05:12.513Z,8.48
2019-03-18T08:07:41.146Z,8.53
2019-03-18T08:10:13.559Z,8.43
2019-03-18T08:12:42.173Z,7.78
2019-03-18T08:15:11.790Z,7.36
2019-03-18T08:17:40.331Z,7.15
2019-03-18T08:20:12.633Z,7.05
2019-03-18T08:22:41.544Z,6.99
2019-03-18T08:25:10.996Z,7.19
2019-03-18T08:27:40.468Z,7.34
2019-03-18T08:30:16.117Z,7.57
2019-03-18T08:32:44.712Z,7.82
2019-03-18T08:35:13.355Z,7.82
2019-03-18T08:37:42.014Z,7.88
2019-03-18T08:40:12.208Z,8.02
2019-03-18T08:42:40.834Z,8.28
2019-03-18T08:45:13.146Z,8.59
2019-03-18T08:47:41.851Z,8.98
2019-03-18T08:50:12.419Z,9.26
2019-03-18T08:52:41.441Z,9.30
2019-03-18T08:55:10.922Z,9.07
2019-03-18T08:57:39.435Z,9.41
2019-03-18T09:00:11.075Z,9.28
2019-03-18T09:02:39.628Z,9.42
2019-03-18T09:05:09.409Z,9.63
2019-03-18T09:07:38.057Z,9.94
2019-03-18T09:10:16.861Z,10.22
2019-03-18T09:12:45.445Z,10.69
2019-03-18T09:15:14.452Z,10.88
2019-03-18T09:17:43.128Z,11.18
2019-03-18T09:20:15.632Z,11.61
2019-03-18T09:22:44.209Z,11.64
2019-03-18T09:25:13.518Z,11.27
2019-03-18T09:27:42.170Z,11.04
2019-03-18T09:30:19.334Z,10.92
2019-03-18T09:32:48.153Z,10.84
2019-03-18T09:35:16.684Z,10.83
2019-03-18T09:37:45.236Z,10.53
2019-03-18T09:40:17.638Z,10.37
2019-03-18T09:42:46.763Z,9.96
2019-03-18T09:45:16.409Z,9.69
2019-03-18T09:47:45.027Z,9.58
2019-03-18T09:50:13.956Z,9.25
2019-03-18T09:52:43.552Z,9.40
2019-03-18T09:55:12.168Z,9.85
2019-03-18T09:57:40.889Z,9.77
2019-03-18T10:00:17.617Z,9.48
2019-03-18T10:02:46.191Z,9.12
2019-03-18T10:05:14.980Z,8.51
2019-03-18T10:07:43.915Z,8.11
2019-03-18T10:10:13.874Z,7.85
2019-03-18T10:12:42.956Z,8.05
2019-03-18T10:15:17.542Z,8.10
2019-03-18T10:17:46.173Z,8.57
2019-03-18T10:20:14.890Z,8.54
2019-03-18T10:22:43.478Z,8.38
2019-03-18T10:25:12.173Z,8.31
2019-03-18T10:27:40.961Z,8.61
2019-03-18T10:30:11.935Z,9.02
2019-03-18T10:32:40.488Z,9.08
2019-03-18T10:35:09.924Z,8.81
2019-03-18T10:37:38.473Z,8.50
2019-03-18T10:40:14.500Z,8.59
2019-03-18T10:42:43.098Z,8.95
2019-03-18T10:45:12.894Z,9.52
2019-03-18T10:47:41.513Z,10.17
2019-03-18T10:50:12.883Z,10.22
2019-03-18T10:52:41.505Z,10.35
2019-03-18T10:55:10.699Z,10.85
2019-03-18T10:57:39.342Z,11.23
2019-03-18T11:00:20.640Z,11.29
2019-03-18T11:02:49.240Z,11.61
2019-03-18T11:05:17.900Z,11.80
2019-03-18T11:07:46.608Z,11.74
2019-03-18T11:10:16.721Z,11.48
2019-03-18T11:12:45.336Z,11.25
2019-03-18T11:15:23.026Z,10.81
2019-03-18T11:17:51.550Z,10.25
2019-03-18T11:20:20.188Z,10.00
2019-03-18T11:22:48.755Z,9.96
2019-03-18T11:25:17.772Z,9.64
2019-03-18T11:27:46.693Z,9.57
2019-03-18T11:30:17.188Z,9.60
2019-03-18T11:32:45.784Z,9.73
2019-03-18T11:35:15.427Z,10.29
2019-03-18T11:37:44.020Z,11.01
2019-03-18T11:40:15.089Z,11.81
2019-03-18T11:42:43.675Z,12.33
2019-03-18T11:45:14.133Z,12.23
2019-03-18T11:47:43.719Z,11.99
2019-03-18T11:50:17.804Z,11.87
2019-03-18T11:52:46.502Z,11.76
2019-03-18T11:55:27.751Z,11.73
2019-03-18T11:57:56.337Z,11.60
2019-03-18T12:00:25.843Z,11.32
2019-03-18T12:02:55.581Z,10.88
2019-03-18T12:05:25.281Z,10.62
2019-03-18T12:07:53.876Z,10.58
2019-03-18T12:10:25.344Z,10.80
2019-03-18T12:12:53.058Z,10.87
2019-03-18T12:15:25.799Z,11.33
2019-03-18T12:17:54.693Z,11.71
2019-03-18T12:20:25.228Z,11.45
2019-03-18T12:22:53.609Z,11.03
2019-03-18T12:25:22.120Z,10.66
2019-03-18T12:27:51.011Z,10.58
2019-03-18T12:30:23.836Z,10.47
2019-03-18T12:32:52.934Z,10.31
2019-03-18T12:35:21.673Z,10.40
2019-03-18T12:37:50.535Z,10.48
2019-03-18T12:40:19.274Z,10.53
2019-03-18T12:42:47.863Z,10.26
2019-03-18T12:45:20.151Z,10.26
2019-03-18T12:47:48.993Z,10.28
2019-03-18T12:50:38.755Z,10.39
2019-03-18T12:52:52.980Z,10.49
2019-03-18T12:55:21.732Z,10.06
2019-03-18T12:57:50.287Z,9.65
2019-03-18T13:00:33.009Z,9.44
2019-03-18T13:03:01.613Z,9.25
2019-03-18T13:05:30.220Z,9.17
2019-03-18T13:07:58.817Z,9.27
2019-03-18T13:10:27.315Z,9.74
2019-03-18T13:12:55.977Z,10.40
2019-03-18T13:15:24.577Z,10.67
2019-03-18T13:17:53.203Z,10.72
2019-03-18T13:20:22.494Z,10.82
2019-03-18T13:22:53.752Z,11.37
2019-03-18T13:25:21.763Z,11.85
2019-03-18T13:27:50.382Z,12.28
2019-03-18T13:30:20.039Z,11.87
2019-03-18T13:32:48.877Z,11.54
2019-03-18T13:35:17.514Z,11.41
2019-03-18T13:37:46.030Z,11.16
2019-03-18T13:40:18.729Z,10.86
2019-03-18T13:42:47.368Z,10.48
2019-03-18T13:45:19.589Z,10.20
2019-03-18T13:47:48.251Z,10.30
2019-03-18T13:50:17.923Z,10.38
2019-03-18T13:52:46.638Z,10.53
2019-03-18T13:55:15.792Z,10.67
2019-03-18T13:57:44.531Z,11.01
2019-03-18T14:00:15.695Z,11.50
2019-03-18T14:02:44.685Z,11.95
2019-03-18T14:05:13.781Z,11.69
2019-03-18T14:07:42.439Z,11.47
2019-03-18T14:10:16.598Z,11.22
2019-03-18T14:12:45.216Z,10.82
2019-03-18T14:15:25.080Z,10.53
2019-03-18T14:17:53.590Z,10.60
2019-03-18T14:20:25.883Z,10.88
2019-03-18T14:22:54.596Z,10.87
2019-03-18T14:25:23.347Z,10.86
2019-03-18T14:27:51.933Z,10.58
2019-03-18T14:30:21.447Z,10.33
2019-03-18T14:32:50.152Z,10.53
2019-03-18T14:35:21.566Z,10.84
2019-03-18T14:37:49.232Z,11.17
2019-03-18T14:40:22.782Z,10.94
2019-03-18T14:42:51.368Z,10.77
2019-03-18T14:45:21.219Z,10.86
2019-03-18T14:47:50.131Z,10.78
2019-03-18T14:50:19.419Z,10.50
2019-03-18T14:52:48.262Z,10.15
2019-03-18T14:55:17.878Z,10.00
2019-03-18T14:57:46.455Z,9.99
2019-03-18T15:00:29.081Z,10.06
2019-03-18T15:02:57.737Z,10.03
2019-03-18T15:05:26.396Z,9.97
2019-03-18T15:07:54.993Z,10.19
2019-03-18T15:10:32.515Z,10.52
2019-03-18T15:13:01.074Z,10.51
2019-03-18T15:15:29.764Z,10.13
2019-03-18T15:17:58.425Z,9.75
2019-03-18T15:20:27.927Z,9.37
2019-03-18T15:22:56.586Z,9.00
2019-03-18T15:25:35.476Z,8.65
2019-03-18T15:28:04.109Z,8.45
2019-03-18T15:30:32.767Z,8.27
2019-03-18T15:33:01.402Z,8.43
2019-03-18T15:35:29.935Z,8.53
2019-03-18T15:37:58.550Z,8.48
2019-03-18T15:40:28.301Z,8.74
2019-03-18T15:42:56.982Z,9.38
2019-03-18T15:45:25.578Z,9.83
2019-03-18T15:47:54.136Z,10.03
2019-03-18T15:50:24.127Z,9.85
2019-03-18T15:52:52.672Z,9.58
2019-03-18T15:55:23.812Z,9.40
2019-03-18T15:57:51.560Z,8.94
2019-03-18T16:00:21.296Z,8.82
2019-03-18T16:02:49.913Z,8.64
2019-03-18T16:05:18.581Z,8.67
2019-03-18T16:07:47.150Z,8.80
2019-03-18T16:10:19.331Z,8.73
2019-03-18T16:12:48.608Z,8.65
2019-03-18T16:15:18.687Z,8.70
2019-03-18T16:17:47.286Z,8.87
2019-03-18T16:20:21.256Z,9.22
2019-03-18T16:22:49.819Z,9.54
2019-03-18T16:25:18.674Z,9.56
2019-03-18T16:27:47.333Z,9.19
2019-03-18T16:30:22.603Z,8.93
2019-03-18T16:32:51.248Z,8.72
2019-03-18T16:35:20.205Z,8.62
2019-03-18T16:37:48.716Z,8.22
2019-03-18T16:40:24.647Z,8.09
2019-03-18T16:42:53.294Z,8.20
2019-03-18T16:45:21.953Z,8.30
2019-03-18T16:47:50.613Z,8.43
2019-03-18T16:50:24.666Z,8.54
2019-03-18T16:52:53.537Z,8.62
2019-03-18T16:55:22.064Z,8.84
2019-03-18T16:57:50.914Z,9.00
2019-03-18T17:00:24.222Z,8.89
2019-03-18T17:02:52.947Z,8.51
2019-03-18T17:05:21.668Z,8.16
2019-03-18T17:07:50.286Z,7.72
2019-03-18T17:10:18.976Z,7.84
2019-03-18T17:12:47.601Z,7.65
2019-03-18T17:15:17.994Z,7.74
2019-03-18T17:17:46.535Z,7.73
2019-03-18T17:20:18.161Z,7.78
2019-03-18T17:22:49.759Z,7.79
2019-03-18T17:25:19.125Z,7.89
2019-03-18T17:27:47.712Z,8.12
2019-03-18T17:30:18.242Z,8.25
2019-03-18T17:32:47.187Z,8.44
2019-03-18T17:35:15.781Z,8.29
2019-03-18T17:37:44.367Z,7.82
2019-03-18T17:40:15.313Z,7.67
2019-03-18T17:42:43.901Z,7.58
2019-03-18T17:45:14.081Z,7.47
2019-03-18T17:47:42.634Z,7.25
2019-03-18T17:50:14.192Z,7.25
2019-03-18T17:52:42.771Z,7.16
2019-03-18T17:55:11.378Z,7.39
2019-03-18T17:57:39.879Z,7.49
2019-03-18T18:00:17.210Z,7.64
2019-03-18T18:02:45.888Z,7.52
2019-03-18T18:05:14.986Z,7.57
2019-03-18T18:07:43.637Z,7.70
2019-03-18T18:10:12.449Z,7.91
2019-03-18T18:12:41.159Z,7.91
2019-03-18T18:15:13.018Z,7.50
2019-03-18T18:17:41.633Z,6.99
2019-03-18T18:20:16.653Z,6.57
2019-03-18T18:22:45.251Z,6.49
2019-03-18T18:25:14.456Z,6.59
2019-03-18T18:27:43.055Z,6.47
2019-03-18T18:30:16.610Z,6.65
2019-03-18T18:32:45.163Z,6.85
2019-03-18T18:35:14.053Z,6.73
2019-03-18T18:37:43.757Z,6.80
2019-03-18T18:40:23.588Z,7.09
2019-03-18T18:42:52.543Z,7.22
2019-03-18T18:45:21.443Z,7.31
2019-03-18T18:47:50.047Z,7.07
2019-03-18T18:50:18.679Z,6.75
2019-03-18T18:52:47.269Z,6.56
2019-03-18T18:55:15.955Z,6.42
2019-03-18T18:57:44.655Z,6.29
2019-03-18T19:00:16.409Z,6.13
2019-03-18T19:02:48.002Z,6.09
2019-03-18T19:05:17.417Z,6.30
2019-03-18T19:07:46.256Z,6.52
2019-03-18T19:10:16.190Z,6.58
2019-03-18T19:12:44.682Z,6.56
2019-03-18T19:15:31.282Z,6.65
2019-03-18T19:18:00.000Z,6.83
2019-03-18T19:20:28.564Z,7.06
2019-03-18T19:22:57.096Z,6.81
2019-03-18T19:25:25.795Z,6.66
2019-03-18T19:27:54.782Z,6.44
2019-03-18T19:30:24.277Z,6.30
2019-03-18T19:32:52.951Z,6.10
2019-03-18T19:35:22.568Z,6.03
2019-03-18T19:37:51.131Z,5.80
2019-03-18T19:40:26.195Z,6.03
2019-03-18T19:42:54.786Z,6.18
2019-03-18T19:45:23.783Z,6.31
2019-03-18T19:47:53.456Z,6.39
2019-03-18T19:50:26.879Z,6.50
2019-03-18T19:52:55.518Z,6.70
2019-03-18T19:55:24.169Z,6.93
2019-03-18T19:57:52.817Z,6.79
2019-03-18T20:00:23.101Z,6.45
2019-03-18T20:02:51.782Z,6.10
2019-03-18T20:05:20.432Z,5.97
2019-03-18T20:07:49.045Z,5.78
2019-03-18T20:10:18.951Z,5.58
2019-03-18T20:12:47.642Z,5.63
2019-03-18T20:15:19.658Z,5.93
2019-03-18T20:17:48.343Z,6.19
2019-03-18T20:20:19.001Z,6.39
2019-03-18T20:22:47.720Z,6.57
2019-03-18T20:25:16.819Z,6.64
2019-03-18T20:27:45.454Z,6.66
2019-03-18T20:30:21.772Z,6.80
2019-03-18T20:32:50.554Z,6.60
2019-03-18T20:35:22.834Z,6.02
2019-03-18T20:37:52.042Z,5.54
2019-03-18T20:40:21.477Z,5.12
2019-03-18T20:42:50.103Z,4.79
2019-03-18T20:45:25.796Z,4.69
2019-03-18T20:47:54.406Z,4.97
2019-03-18T20:50:26.311Z,5.45
2019-03-18T20:52:55.002Z,5.59
2019-03-18T20:55:23.519Z,5.65
2019-03-18T20:57:52.222Z,5.77
2019-03-18T21:00:24.337Z,5.84
2019-03-18T21:02:53.129Z,5.68
2019-03-18T21:05:21.716Z,5.69
2019-03-18T21:07:50.536Z,5.45
2019-03-18T21:10:22.144Z,4.69
2019-03-18T21:12:50.795Z,4.07
2019-03-18T21:15:19.514Z,3.59
2019-03-18T21:17:48.085Z,3.74
2019-03-18T21:20:18.760Z,4.14
2019-03-18T21:22:47.343Z,4.51
2019-03-18T21:25:15.976Z,4.86
2019-03-18T21:27:44.632Z,5.21
2019-03-18T21:30:21.974Z,5.35
2019-03-18T21:32:50.749Z,5.48
2019-03-18T21:35:19.549Z,5.50
2019-03-18T21:37:48.083Z,5.33
2019-03-18T21:40:21.245Z,5.29
2019-03-18T21:42:49.864Z,5.06
2019-03-18T21:45:23.685Z,4.32
2019-03-18T21:47:52.615Z,3.51
2019-03-18T21:50:21.286Z,3.07
2019-03-18T21:52:49.897Z,3.04
2019-03-18T21:55:18.407Z,3.32
2019-03-18T21:57:47.085Z,3.89
2019-03-18T22:00:23.009Z,4.34
2019-03-18T22:02:51.636Z,4.73
2019-03-18T22:05:20.279Z,4.90
2019-03-18T22:07:48.883Z,5.01
2019-03-18T22:10:21.325Z,5.11
2019-03-18T22:12:50.056Z,4.94
2019-03-18T22:15:18.648Z,4.80
2019-03-18T22:17:47.231Z,4.70
2019-03-18T22:20:16.635Z,4.29
2019-03-18T22:22:45.324Z,3.69
2019-03-18T22:25:14.720Z,3.18
2019-03-18T22:27:43.329Z,3.31
2019-03-18T22:30:15.963Z,3.46
2019-03-18T22:32:45.085Z,3.69
2019-03-18T22:35:13.771Z,3.81
2019-03-18T22:37:42.581Z,3.83
2019-03-18T22:40:15.251Z,3.87
2019-03-18T22:42:44.233Z,4.05
2019-03-18T22:45:13.721Z,4.01
2019-03-18T22:47:42.341Z,4.01
2019-03-18T22:50:13.819Z,3.96
2019-03-18T22:52:42.859Z,4.20
2019-03-18T22:55:14.883Z,4.03
2019-03-18T22:57:43.574Z,3.28
2019-03-18T23:00:17.047Z,2.52
2019-03-18T23:02:46.647Z,2.31
2019-03-18T23:05:15.639Z,2.49
2019-03-18T23:07:44.272Z,2.98
2019-03-18T23:10:12.985Z,3.30
2019-03-18T23:12:41.619Z,3.55
2019-03-18T23:15:10.291Z,3.94
2019-03-18T23:17:39.001Z,4.12
2019-03-18T23:20:08.431Z,4.19
2019-03-18T23:22:36.939Z,3.98
2019-03-18T23:25:08.209Z,3.75
2019-03-18T23:27:37.031Z,3.81
2019-03-18T23:30:13.018Z,3.59
2019-03-18T23:32:41.646Z,3.02
2019-03-18T23:35:10.655Z,2.60
2019-03-18T23:37:39.580Z,2.20
2019-03-18T23:40:10.162Z,2.27
2019-03-18T23:42:38.855Z,2.71
2019-03-18T23:45:09.059Z,3.08
2019-03-18T23:47:37.624Z,3.19
2019-03-18T23:50:13.689Z,3.51
2019-03-18T23:52:42.388Z,3.76
2019-03-18T23:55:18.911Z,3.63
2019-03-18T23:57:41.626Z,3.59
